Pagina principală
METAR-TAF:

METAR-TAF

Aeroporturi :

Enid, Oklahoma, Statele Unite ale Americii

Latitudine: 36-22-45N, longitudine: 097-47-28W, elevație: 356 m

Observații meteo curente

Raportul a fost făcut în urmă cu 45 de minute, la 01:50 UTC
Vânt 3 kt de la Est/Nord-est
Temperatură 20°C
Umiditate 68%
Presiune 1011 hPa
Vizibilitate: 16.1 km
Cer senin

METAR: KWDG 230150Z 07003KT 10SM SKC 20/14 A2984 RMK LAST

Ora: 21:35 (02:35 UTC)


TAF: lipsă

Observații și prognoze meteo pentru peste 4.000 de aeroporturi (rapoarte METAR și TAF).

Stațiile disponibile sunt reprezentate pe hartă prin puncte galbene și roșii.

Țineți indicatorul mouse-ului pe punctul dorit pentru a vedea denumirea stației.

Apoi, faceți clic pentru a vedea observațiile și prognozele meteorologice.

Pentru a schimba harta: Pentru mărire, faceți clic pe butoanele verzi cu cruce neagră; pentru micșorare, pe butonul verde cu o liniuță; pentru hărți învecinate, pe săgețile verzi.


METAR-TAF: